Valley, Washington
Current Conditions -  °F | °C
As of 6:53 PM on Friday 19 Dec 2014 (Local Time) from KDEW Reporting Station
Overcast Overcast  
Wind Chill:   Ceiling: 2200
Heat Index:   Visibility: 10mi
Dew Point:   Wind: 9mph
Humidity: 86%   Direction: 240°WSW
Pressure: 29.98"   Gusts: NA
Location:  48.17°N, 117.73°W
Report Text: KDEW 200253Z AUTO 24008KT 10SM FEW015 OVC022 04/02 A2998 RMK AO2 SLP166 T00390017 51011
Loading
Personal Weather Stations






























Interactive Weather Map New forecast layout! Learn more

10-Day Weather Forecast

Advertisements
Track Severe Weather on mobile